Sunshine Coast Airport Weather Forecast (YBSU – MCY)

METAR

METAR YBSU 191630Z AUTO 36006KT 9999 // NCD 18/13 Q1015 RMK RF00.0/000.0

TAF

TAF YBSU 191623Z 1918/2006 32009KT CAVOK FM192000 17011KT 9999 SCT020 FM192300 15014KT 9999 FEW025 RMK T 15 17 24 24 Q 1015 1018 1018 1016

QNH 

1015

Temperature & Dew Point

12° DP13